Time;durP1;ratioP1;P1;durP2;ratioP2;P2;SDS_P1;SDS_P2;PMS_P1;PMS_P2;Temp;Humidity;BMP_temperature;BMP_pressure;BME280_temperature;BME280_humidity;BME280_pressure;Samples;Min_cycle;Max_cycle;Signal;HPM_P1;HPM_P2
2023/09/27 00:04:29;;;;;;;4.90;4.60;;;18.00;39.60;;;;;;10269347;28;20230;-71
2023/09/27 00:09:32;;;;;;;5.43;5.03;;;18.00;39.40;;;;;;10266981;28;20227;-74
2023/09/27 00:14:37;;;;;;;5.03;4.63;;;17.90;39.30;;;;;;10264744;28;20254;-72
2023/09/27 00:19:40;;;;;;;5.13;4.73;;;17.70;39.50;;;;;;10261940;28;20227;-72
2023/09/27 00:24:43;;;;;;;5.50;5.03;;;17.50;39.30;;;;;;10265986;28;20318;-72
2023/09/27 00:29:48;;;;;;;4.20;3.90;;;17.30;39.50;;;;;;10262286;28;20825;-72
2023/09/27 00:34:51;;;;;;;4.23;3.93;;;17.20;40.20;;;;;;10262694;28;20232;-71
2023/09/27 00:39:55;;;;;;;4.50;4.20;;;17.10;40.20;;;;;;10260309;28;20675;-71
2023/09/27 00:45:00;;;;;;;4.73;4.30;;;17.10;40.30;;;;;;10267623;28;20900;-74
2023/09/27 00:50:04;;;;;;;5.50;3.97;;;17.20;40.50;;;;;;10264897;28;20316;-73
2023/09/27 00:55:11;;;;;;;4.40;4.10;;;17.20;40.20;;;;;;10258536;28;20334;-74
2023/09/27 01:00:16;;;;;;;3.37;3.17;;;17.30;40.30;;;;;;10273897;28;20227;-74
2023/09/27 01:05:20;;;;;;;4.20;3.90;;;17.30;40.00;;;;;;10263252;28;20251;-74
2023/09/27 01:10:23;;;;;;;4.97;4.10;;;17.30;40.60;;;;;;10262071;28;20239;-74
2023/09/27 01:15:28;;;;;;;4.97;4.47;;;17.20;39.80;;;;;;10265982;28;20239;-74
2023/09/27 01:20:33;;;;;;;4.90;4.50;;;17.30;40.10;;;;;;10276337;28;20307;-71
2023/09/27 01:25:39;;;;;;;4.40;4.10;;;17.20;40.00;;;;;;10269368;28;20243;-71
2023/09/27 01:30:42;;;;;;;4.70;4.40;;;17.10;40.00;;;;;;10269147;28;20301;-71
2023/09/27 01:35:46;;;;;;;4.53;4.10;;;17.00;39.90;;;;;;10259077;28;20828;-71
2023/09/27 01:40:51;;;;;;;5.60;5.20;;;17.00;40.10;;;;;;10268877;28;20665;-71
2023/09/27 01:45:55;;;;;;;4.90;4.50;;;16.90;39.90;;;;;;10270022;28;20236;-70
2023/09/27 01:50:58;;;;;;;3.90;3.60;;;16.80;39.60;;;;;;10272147;28;20240;-70
2023/09/27 01:56:04;;;;;;;3.83;3.57;;;16.70;39.80;;;;;;10256097;28;20227;-71
2023/09/27 02:01:07;;;;;;;4.00;3.70;;;16.60;40.20;;;;;;10261333;28;20761;-70
2023/09/27 02:06:11;;;;;;;4.60;4.30;;;16.50;39.90;;;;;;10255469;28;20760;-71
2023/09/27 02:11:16;;;;;;;3.90;3.60;;;16.50;40.00;;;;;;10259939;28;20839;-71
2023/09/27 02:16:21;;;;;;;4.20;3.80;;;16.50;40.20;;;;;;10260695;28;20288;-75
2023/09/27 02:21:25;;;;;;;3.77;3.57;;;16.50;40.00;;;;;;10261625;28;20890;-71
2023/09/27 02:26:29;;;;;;;4.37;4.07;;;16.50;39.80;;;;;;10262682;28;20789;-75
2023/09/27 02:31:33;;;;;;;4.67;3.90;;;16.40;40.10;;;;;;10262162;28;20235;-74
2023/09/27 02:36:36;;;;;;;3.80;3.50;;;16.40;40.10;;;;;;10266115;28;20232;-71
2023/09/27 02:41:41;;;;;;;3.60;3.40;;;16.40;40.00;;;;;;10257000;28;20240;-71
2023/09/27 02:46:44;;;;;;;4.50;4.10;;;16.40;40.00;;;;;;10263091;28;20246;-71
2023/09/27 02:51:48;;;;;;;4.20;3.90;;;16.30;39.70;;;;;;10269162;28;20234;-71
2023/09/27 02:56:53;;;;;;;4.10;3.80;;;16.20;39.80;;;;;;10255695;28;20318;-71
2023/09/27 03:01:56;;;;;;;4.10;3.80;;;16.10;40.10;;;;;;10262535;28;20233;-71
2023/09/27 03:07:00;;;;;;;4.77;4.20;;;16.00;40.10;;;;;;10250457;28;20274;-71
2023/09/27 03:12:05;;;;;;;4.43;4.03;;;16.00;40.00;;;;;;10252232;28;20686;-71
2023/09/27 03:17:09;;;;;;;4.60;4.30;;;15.80;40.30;;;;;;10254190;28;20324;-71
2023/09/27 03:22:12;;;;;;;3.97;3.60;;;15.70;40.10;;;;;;10257236;28;20750;-71
2023/09/27 03:27:17;;;;;;;4.70;4.27;;;15.60;40.30;;;;;;10271701;28;20599;-75
2023/09/27 03:32:20;;;;;;;4.27;3.93;;;15.50;40.80;;;;;;10259389;28;20787;-71
2023/09/27 03:37:23;;;;;;;4.40;4.10;;;15.40;40.70;;;;;;10264435;28;20251;-73
2023/09/27 03:42:29;;;;;;;3.80;3.60;;;15.40;40.90;;;;;;10266582;28;20594;-70
2023/09/27 03:47:33;;;;;;;4.40;4.00;;;15.40;41.10;;;;;;10268607;28;20240;-71
2023/09/27 03:52:36;;;;;;;4.60;4.20;;;15.40;40.80;;;;;;10266025;28;20297;-71
2023/09/27 03:57:42;;;;;;;5.97;5.40;;;15.50;40.80;;;;;;10274585;28;20239;-74
2023/09/27 04:02:46;;;;;;;6.33;5.80;;;15.50;41.20;;;;;;10267612;28;20757;-74
2023/09/27 04:07:50;;;;;;;6.87;6.27;;;15.50;40.80;;;;;;10275061;28;20231;-74
2023/09/27 04:12:54;;;;;;;8.00;5.73;;;15.50;40.60;;;;;;10270582;28;20609;-74
2023/09/27 04:17:58;;;;;;;6.83;6.00;;;15.50;40.90;;;;;;10264259;28;20303;-71
2023/09/27 04:23:02;;;;;;;6.80;6.10;;;15.50;40.80;;;;;;10259458;28;20319;-75
2023/09/27 04:28:09;;;;;;;8.77;7.33;;;15.50;41.00;;;;;;10267328;28;20886;-75
2023/09/27 04:33:14;;;;;;;10.00;6.90;;;15.40;41.60;;;;;;10254871;28;20469;-75
2023/09/27 04:38:17;;;;;;;12.67;7.10;;;15.40;41.30;;;;;;10258297;28;20303;-75
2023/09/27 04:43:22;;;;;;;6.60;6.10;;;15.40;41.50;;;;;;10254544;28;20598;-71
2023/09/27 04:48:25;;;;;;;11.50;6.73;;;15.40;42.10;;;;;;10256395;28;20239;-71
2023/09/27 04:53:30;;;;;;;6.90;6.20;;;15.30;41.80;;;;;;10258023;28;20231;-70
2023/09/27 04:58:35;;;;;;;10.70;5.70;;;15.30;42.00;;;;;;10258341;28;21269;-71
2023/09/27 05:03:43;;;;;;;9.80;6.10;;;15.20;42.40;;;;;;10259492;28;20874;-70
2023/09/27 05:08:46;;;;;;;5.87;5.47;;;15.20;42.10;;;;;;10257047;28;20267;-70
2023/09/27 05:13:50;;;;;;;7.60;5.57;;;15.20;42.20;;;;;;10251973;28;20324;-70
2023/09/27 05:18:54;;;;;;;13.47;6.17;;;15.10;43.90;;;;;;10260698;28;20286;-74
2023/09/27 05:23:57;;;;;;;17.67;6.80;;;15.20;43.20;;;;;;10253326;28;20234;-71
2023/09/27 05:29:03;;;;;;;7.13;5.80;;;15.20;42.70;;;;;;10257105;28;20327;-74
2023/09/27 05:34:07;;;;;;;7.10;6.40;;;15.20;43.60;;;;;;10268188;28;20230;-74
2023/09/27 05:39:11;;;;;;;6.80;6.30;;;15.10;42.70;;;;;;10260384;28;20235;-74
2023/09/27 05:44:16;;;;;;;13.67;6.60;;;15.00;43.10;;;;;;10258375;28;20292;-75
2023/09/27 05:49:20;;;;;;;11.80;6.80;;;15.00;43.60;;;;;;10260516;28;20236;-76
2023/09/27 05:54:23;;;;;;;21.17;6.07;;;15.00;43.90;;;;;;10264098;28;20220;-72
2023/09/27 05:59:28;;;;;;;9.07;6.30;;;15.00;43.10;;;;;;10261914;28;20219;-72
2023/09/27 06:04:31;;;;;;;7.10;6.60;;;15.00;43.80;;;;;;10258914;28;20232;-71
2023/09/27 06:09:35;;;;;;;17.80;6.53;;;14.90;43.60;;;;;;10252822;28;20802;-72
2023/09/27 06:14:41;;;;;;;11.97;6.77;;;14.90;44.00;;;;;;10255845;28;20810;-71
2023/09/27 06:19:45;;;;;;;11.27;6.53;;;14.90;44.30;;;;;;10264785;28;20234;-72
2023/09/27 06:24:48;;;;;;;6.50;6.00;;;14.90;44.30;;;;;;10259347;28;20600;-73
2023/09/27 06:29:53;;;;;;;19.60;7.07;;;14.90;44.30;;;;;;10256965;28;20234;-73
2023/09/27 06:34:57;;;;;;;12.70;6.57;;;15.00;44.30;;;;;;10260694;28;20252;-74
2023/09/27 06:40:00;;;;;;;5.93;5.33;;;15.00;44.30;;;;;;10265657;28;20232;-74
2023/09/27 06:45:06;;;;;;;18.00;7.10;;;14.90;44.30;;;;;;10261777;28;20230;-74
2023/09/27 06:50:10;;;;;;;12.30;7.10;;;15.00;45.20;;;;;;10265417;28;20231;-74
2023/09/27 06:55:16;;;;;;;8.30;7.43;;;15.00;44.60;;;;;;10266052;28;21543;-76
2023/09/27 07:00:24;;;;;;;8.50;7.80;;;15.10;44.40;;;;;;10270025;28;20220;-76
2023/09/27 07:05:27;;;;;;;16.83;8.10;;;15.10;45.70;;;;;;10268725;28;20255;-76
2023/09/27 07:10:31;;;;;;;7.53;6.93;;;15.20;45.20;;;;;;10268357;28;20283;-76
2023/09/27 07:15:36;;;;;;;13.17;8.57;;;15.40;45.30;;;;;;10269190;28;20259;-77
2023/09/27 07:20:41;;;;;;;8.70;8.00;;;15.50;46.40;;;;;;10276045;28;20322;-73
2023/09/27 07:25:47;;;;;;;9.27;8.57;;;15.60;45.70;;;;;;10260763;28;20232;-73
2023/09/27 07:30:52;;;;;;;10.77;9.93;;;15.60;46.30;;;;;;10270874;28;20259;-73
2023/09/27 07:35:58;;;;;;;12.07;10.87;;;15.80;47.30;;;;;;10272605;28;20327;-73
2023/09/27 07:41:01;;;;;;;13.00;11.90;;;16.00;46.90;;;;;;10272553;28;20290;-73
2023/09/27 07:46:06;;;;;;;11.87;10.87;;;16.20;47.20;;;;;;10265158;28;20219;-74
2023/09/27 07:51:11;;;;;;;11.53;10.60;;;16.40;48.20;;;;;;10272601;28;20236;-73
2023/09/27 07:56:20;;;;;;;11.67;10.77;;;16.60;47.80;;;;;;10269898;28;20234;-72
2023/09/27 08:01:25;;;;;;;16.67;15.13;;;16.90;49.30;;;;;;10268715;28;20231;-72
2023/09/27 08:06:29;;;;;;;16.27;14.70;;;17.10;47.80;;;;;;10260895;28;20237;-72
2023/09/27 08:11:32;;;;;;;15.63;14.23;;;17.30;46.90;;;;;;10271080;28;20232;-72
2023/09/27 08:16:36;;;;;;;16.70;15.10;;;17.40;46.50;;;;;;10274095;28;20260;-72
2023/09/27 08:21:40;;;;;;;17.00;15.50;;;17.50;47.20;;;;;;10274393;28;20219;-72
2023/09/27 08:26:43;;;;;;;16.37;14.90;;;17.70;46.70;;;;;;10260850;28;20236;-73
2023/09/27 08:31:50;;;;;;;18.13;16.57;;;17.90;47.00;;;;;;10272814;28;20247;-72
2023/09/27 08:36:53;;;;;;;17.37;15.87;;;18.10;47.90;;;;;;10269339;28;20238;-77
2023/09/27 08:41:57;;;;;;;18.23;16.63;;;18.30;47.50;;;;;;10259937;28;20224;-73
2023/09/27 08:47:03;;;;;;;17.73;16.23;;;18.60;47.50;;;;;;10269603;28;20228;-73
2023/09/27 08:52:08;;;;;;;18.40;16.80;;;18.90;47.90;;;;;;10265354;28;20242;-73
2023/09/27 08:57:13;;;;;;;19.73;17.97;;;19.20;48.00;;;;;;10263841;28;20263;-73
2023/09/27 09:02:19;;;;;;;19.47;17.77;;;19.50;48.00;;;;;;10265892;28;20234;-77
2023/09/27 09:07:22;;;;;;;19.57;17.90;;;19.70;47.60;;;;;;10260390;28;20240;-77
2023/09/27 09:12:26;;;;;;;18.73;17.03;;;20.00;47.40;;;;;;10258727;28;20255;-77
2023/09/27 09:17:36;;;;;;;18.50;16.80;;;20.30;47.20;;;;;;10271706;28;20227;-72
2023/09/27 09:22:44;;;;;;;18.30;16.67;;;20.60;46.80;;;;;;10260073;28;20598;-73
2023/09/27 09:28:03;;;;;;;17.30;15.80;;;20.90;46.30;;;;;;10264646;28;20781;-72
2023/09/27 09:33:17;;;;;;;16.17;14.73;;;21.20;46.10;;;;;;10268613;28;20233;-73
2023/09/27 09:38:29;;;;;;;15.70;14.30;;;21.50;45.60;;;;;;10260407;28;20776;-72
2023/09/27 09:43:34;;;;;;;14.37;13.10;;;21.80;45.60;;;;;;10263614;28;20644;-72
2023/09/27 09:48:40;;;;;;;14.13;12.90;;;22.00;44.90;;;;;;10260682;28;20236;-73
2023/09/27 09:53:44;;;;;;;13.83;12.53;;;22.30;45.20;;;;;;10256147;28;20314;-73
2023/09/27 09:58:53;;;;;;;12.53;11.43;;;22.50;44.80;;;;;;10259760;28;20225;-73
2023/09/27 10:04:03;;;;;;;12.70;11.60;;;22.80;43.90;;;;;;10261497;28;20285;-72
2023/09/27 10:09:13;;;;;;;14.03;12.83;;;23.00;44.30;;;;;;10266080;28;20262;-73
2023/09/27 10:14:19;;;;;;;12.57;11.57;;;23.20;44.20;;;;;;10265497;28;20598;-76
2023/09/27 10:19:28;;;;;;;14.87;13.67;;;23.40;44.40;;;;;;10261835;28;20950;-75
2023/09/27 10:24:34;;;;;;;14.30;12.93;;;23.60;43.10;;;;;;10257600;28;20231;-76
2023/09/27 10:29:56;;;;;;;14.77;13.57;;;23.70;43.10;;;;;;10259334;28;20314;-76
2023/09/27 10:35:16;;;;;;;14.57;13.27;;;23.90;43.20;;;;;;10264486;28;20227;-75
2023/09/27 10:40:21;;;;;;;17.73;16.23;;;24.00;42.70;;;;;;10276008;28;20289;-73
2023/09/27 10:45:25;;;;;;;15.17;13.77;;;24.10;42.40;;;;;;10271756;28;20706;-74
2023/09/27 10:50:30;;;;;;;14.27;13.10;;;24.10;42.80;;;;;;10269008;28;20235;-73
2023/09/27 10:55:41;;;;;;;13.73;12.37;;;24.20;42.50;;;;;;10265028;28;20244;-75
2023/09/27 11:00:55;;;;;;;13.87;12.67;;;24.30;42.20;;;;;;10273539;28;20270;-75
2023/09/27 11:06:09;;;;;;;13.27;12.13;;;24.40;42.00;;;;;;10268533;28;20278;-73
2023/09/27 11:11:13;;;;;;;13.73;12.03;;;24.50;41.80;;;;;;10266458;28;20324;-73
2023/09/27 11:16:18;;;;;;;13.60;12.43;;;24.70;42.20;;;;;;10277246;28;20339;-72
2023/09/27 11:21:23;;;;;;;12.60;11.37;;;24.70;41.90;;;;;;10263987;28;20230;-72
2023/09/27 11:26:29;;;;;;;11.63;10.63;;;24.80;41.20;;;;;;10271555;28;20236;-77
2023/09/27 11:31:33;;;;;;;9.60;8.70;;;24.90;41.60;;;;;;10269323;28;20608;-77
2023/09/27 11:36:42;;;;;;;8.57;7.87;;;24.90;40.90;;;;;;10270107;28;20703;-77
2023/09/27 11:41:46;;;;;;;10.47;9.57;;;25.00;40.90;;;;;;10269229;28;20717;-77
2023/09/27 11:46:50;;;;;;;8.57;7.87;;;25.20;40.80;;;;;;10267695;28;20227;-77
2023/09/27 11:51:55;;;;;;;9.60;8.80;;;25.20;40.30;;;;;;10266811;28;20235;-77
2023/09/27 11:57:02;;;;;;;9.53;8.73;;;25.30;39.60;;;;;;10264741;28;20228;-73
2023/09/27 12:02:06;;;;;;;8.90;8.10;;;25.40;39.80;;;;;;10262923;28;20314;-72
2023/09/27 12:07:29;;;;;;;9.53;8.63;;;25.40;39.70;;;;;;10259375;28;20802;-72
2023/09/27 12:12:33;;;;;;;7.67;7.07;;;25.40;38.80;;;;;;10257084;28;20266;-72
2023/09/27 12:17:37;;;;;;;7.03;6.53;;;25.50;39.40;;;;;;10254128;28;20240;-72
2023/09/27 12:22:42;;;;;;;9.10;8.30;;;25.60;39.30;;;;;;10257915;28;20235;-72
2023/09/27 12:27:46;;;;;;;8.47;7.77;;;25.60;38.60;;;;;;10255705;28;20825;-72
2023/09/27 12:32:51;;;;;;;7.20;6.70;;;25.70;39.00;;;;;;10261957;28;20334;-72
2023/09/27 12:37:56;;;;;;;8.00;7.20;;;25.70;38.70;;;;;;10261074;28;20333;-73
2023/09/27 12:42:59;;;;;;;7.40;6.67;;;25.70;38.30;;;;;;10257134;28;20237;-73
2023/09/27 12:48:02;;;;;;;7.63;7.03;;;25.70;38.70;;;;;;10251013;28;20525;-74
2023/09/27 12:53:07;;;;;;;7.03;6.40;;;25.70;38.30;;;;;;10259004;28;20236;-75
2023/09/27 12:58:12;;;;;;;7.20;6.70;;;25.70;37.80;;;;;;10258103;28;20251;-75
2023/09/27 13:03:15;;;;;;;6.93;6.43;;;25.70;37.50;;;;;;10255472;28;20548;-72
2023/09/27 13:08:20;;;;;;;6.67;6.17;;;25.80;38.20;;;;;;10259909;28;20228;-77
2023/09/27 13:13:24;;;;;;;6.47;5.87;;;25.80;37.40;;;;;;10259973;28;20449;-78
2023/09/27 13:18:28;;;;;;;7.13;6.63;;;25.90;37.60;;;;;;10256807;28;20307;-73
2023/09/27 13:23:33;;;;;;;6.70;6.20;;;25.90;37.00;;;;;;10254163;28;20239;-75
2023/09/27 13:28:36;;;;;;;6.60;6.10;;;25.90;36.70;;;;;;10257204;28;20335;-75
2023/09/27 13:33:39;;;;;;;7.30;6.50;;;25.90;37.10;;;;;;10259100;28;20240;-75
2023/09/27 13:38:51;;;;;;;6.30;5.70;;;26.00;36.70;;;;;;10267913;28;20236;-72
2023/09/27 13:43:55;;;;;;;6.63;5.70;;;26.00;36.10;;;;;;10263539;28;20239;-72
2023/09/27 13:48:58;;;;;;;5.70;5.30;;;26.00;36.70;;;;;;10259333;28;20896;-73
2023/09/27 13:54:04;;;;;;;6.57;5.97;;;26.00;36.90;;;;;;10258132;28;20232;-74
2023/09/27 13:59:07;;;;;;;6.07;5.57;;;26.10;36.30;;;;;;10262260;28;20231;-77
2023/09/27 14:04:11;;;;;;;5.30;4.90;;;26.20;36.40;;;;;;10271414;28;20351;-77
2023/09/27 14:09:16;;;;;;;5.37;4.97;;;26.20;36.30;;;;;;10262804;28;20394;-78
2023/09/27 14:14:19;;;;;;;5.57;5.17;;;26.20;35.50;;;;;;10266371;28;20250;-78
2023/09/27 14:19:22;;;;;;;5.37;4.97;;;26.20;35.70;;;;;;10258175;28;20311;-77
2023/09/27 14:24:28;;;;;;;5.87;5.47;;;26.20;35.80;;;;;;10261074;28;20323;-77
2023/09/27 14:29:34;;;;;;;5.47;5.07;;;26.20;35.30;;;;;;10256078;28;20306;-77
2023/09/27 14:34:39;;;;;;;5.50;5.00;;;26.20;35.70;;;;;;10263802;28;20229;-77
2023/09/27 14:40:00;;;;;;;4.60;4.30;;;26.20;35.70;;;;;;10257516;28;20776;-77
2023/09/27 14:45:04;;;;;;;4.57;4.20;;;26.30;35.30;;;;;;10258530;28;20318;-77
2023/09/27 14:50:18;;;;;;;4.80;4.50;;;26.30;35.50;;;;;;10253508;28;20236;-78
2023/09/27 14:55:25;;;;;;;4.77;4.20;;;26.30;34.90;;;;;;10254625;28;20666;-72
2023/09/27 15:00:31;;;;;;;4.63;4.20;;;26.40;34.40;;;;;;10262613;28;20360;-71
2023/09/27 15:05:34;;;;;;;4.53;4.23;;;26.30;34.50;;;;;;10263190;28;20239;-74
2023/09/27 15:10:40;;;;;;;5.00;4.60;;;26.30;35.30;;;;;;10265659;28;20247;-72
2023/09/27 15:15:45;;;;;;;4.90;4.50;;;26.30;34.50;;;;;;10263709;28;20236;-73
2023/09/27 15:20:49;;;;;;;5.20;4.70;;;26.40;35.20;;;;;;10268455;28;21061;-73
2023/09/27 15:25:53;;;;;;;4.77;4.33;;;26.40;35.30;;;;;;10265865;28;20236;-73
2023/09/27 15:30:59;;;;;;;5.43;4.70;;;26.40;34.50;;;;;;10263056;28;20915;-73
2023/09/27 15:36:03;;;;;;;4.63;4.33;;;26.50;34.90;;;;;;10262080;28;20228;-70
2023/09/27 15:41:08;;;;;;;4.23;3.93;;;26.50;34.90;;;;;;10261502;28;20234;-72
2023/09/27 15:46:13;;;;;;;5.60;5.10;;;26.50;34.20;;;;;;10265340;28;20240;-78
2023/09/27 15:51:17;;;;;;;4.97;4.60;;;26.50;33.80;;;;;;10267157;28;20224;-77
2023/09/27 15:56:21;;;;;;;4.93;4.53;;;26.50;34.30;;;;;;10262605;28;20263;-78
2023/09/27 16:01:24;;;;;;;4.80;4.40;;;26.50;33.90;;;;;;10263792;28;20303;-78
2023/09/27 16:06:29;;;;;;;4.40;4.10;;;26.50;34.30;;;;;;10265702;28;20234;-74
2023/09/27 16:11:34;;;;;;;4.50;4.10;;;26.50;34.20;;;;;;10260984;28;20805;-74
2023/09/27 16:16:38;;;;;;;4.20;3.90;;;26.50;33.90;;;;;;10264758;28;20232;-74
2023/09/27 16:21:42;;;;;;;4.57;4.17;;;26.50;34.00;;;;;;10262708;28;20274;-74
2023/09/27 16:26:48;;;;;;;5.00;4.60;;;26.50;34.00;;;;;;10255543;28;20236;-74
2023/09/27 16:31:51;;;;;;;4.97;4.43;;;26.40;33.80;;;;;;10259989;28;20763;-74
2023/09/27 16:36:56;;;;;;;4.90;4.30;;;26.40;34.00;;;;;;10262556;28;20393;-74
2023/09/27 16:42:01;;;;;;;5.07;4.70;;;26.30;34.10;;;;;;10266380;28;21037;-74
2023/09/27 16:47:04;;;;;;;4.77;4.30;;;26.20;34.10;;;;;;10259590;28;20236;-74
2023/09/27 16:52:07;;;;;;;4.23;3.93;;;26.20;34.40;;;;;;10258930;28;20224;-74
2023/09/27 16:57:12;;;;;;;5.00;4.60;;;26.10;34.40;;;;;;10259322;28;20347;-74
2023/09/27 17:02:15;;;;;;;5.00;4.47;;;26.00;34.40;;;;;;10260926;28;20223;-73
2023/09/27 17:07:18;;;;;;;5.60;4.30;;;25.90;34.40;;;;;;10265867;28;20674;-77
2023/09/27 17:12:23;;;;;;;4.60;4.20;;;25.80;34.40;;;;;;10259489;28;20639;-74
2023/09/27 17:17:26;;;;;;;4.70;4.40;;;25.70;34.40;;;;;;10270726;28;20236;-75
2023/09/27 17:22:29;;;;;;;4.80;4.33;;;25.60;34.70;;;;;;10273778;28;20223;-72
2023/09/27 17:27:34;;;;;;;4.90;4.50;;;25.40;34.50;;;;;;10264726;28;20240;-72
2023/09/27 17:32:38;;;;;;;7.47;4.73;;;25.30;34.50;;;;;;10251275;28;20840;-72
2023/09/27 17:37:41;;;;;;;4.47;4.13;;;25.20;34.60;;;;;;10254547;28;20237;-71
2023/09/27 17:42:46;;;;;;;5.47;4.27;;;25.00;34.80;;;;;;10265769;28;20348;-72
2023/09/27 17:47:51;;;;;;;5.17;4.40;;;24.80;35.10;;;;;;10257848;28;20231;-72
2023/09/27 17:52:54;;;;;;;4.47;4.17;;;24.70;35.30;;;;;;10256079;28;20236;-75
2023/09/27 17:57:59;;;;;;;4.50;4.20;;;24.60;35.10;;;;;;10255866;28;20228;-75
2023/09/27 18:03:02;;;;;;;4.93;4.57;;;24.50;35.20;;;;;;10253434;28;20323;-72
2023/09/27 18:08:06;;;;;;;5.20;4.70;;;24.40;35.20;;;;;;10253196;28;20237;-72
2023/09/27 18:13:11;;;;;;;5.10;4.70;;;24.30;35.20;;;;;;10252625;28;20233;-72
2023/09/27 18:18:14;;;;;;;5.50;5.07;;;24.10;35.30;;;;;;10250284;28;20310;-72
2023/09/27 18:23:19;;;;;;;5.77;5.17;;;24.10;35.50;;;;;;10260099;28;20231;-72
2023/09/27 18:28:24;;;;;;;4.73;4.43;;;23.90;35.10;;;;;;10261038;28;20330;-72
2023/09/27 18:33:27;;;;;;;5.33;4.87;;;23.80;35.00;;;;;;10263013;28;20793;-72
2023/09/27 18:38:30;;;;;;;5.43;4.93;;;23.70;35.00;;;;;;10250660;28;20236;-76
2023/09/27 18:43:35;;;;;;;5.53;5.07;;;23.50;35.10;;;;;;10251922;28;20554;-75
2023/09/27 18:48:39;;;;;;;5.53;5.03;;;23.30;35.40;;;;;;10251416;28;20247;-75
2023/09/27 18:53:42;;;;;;;7.43;5.10;;;23.20;35.50;;;;;;10257368;28;20231;-72
2023/09/27 18:58:47;;;;;;;6.27;4.73;;;23.10;35.60;;;;;;10270009;28;20757;-72
2023/09/27 19:03:50;;;;;;;4.90;4.60;;;23.00;35.70;;;;;;10257437;28;20282;-72
2023/09/27 19:08:54;;;;;;;5.90;5.30;;;22.90;35.80;;;;;;10266730;28;20227;-75
2023/09/27 19:13:59;;;;;;;7.37;6.77;;;22.80;35.80;;;;;;10260052;28;20234;-75
2023/09/27 19:19:03;;;;;;;6.33;5.80;;;22.70;36.10;;;;;;10261397;28;20227;-74
2023/09/27 19:24:07;;;;;;;7.20;6.57;;;22.60;36.10;;;;;;10266523;28;20231;-74
2023/09/27 19:29:11;;;;;;;7.80;7.20;;;22.50;36.20;;;;;;10265093;28;20733;-75
2023/09/27 19:34:15;;;;;;;7.53;6.87;;;22.30;36.40;;;;;;10259534;28;20746;-75
2023/09/27 19:39:18;;;;;;;7.93;7.13;;;22.10;36.30;;;;;;10263790;28;20238;-75
2023/09/27 19:44:22;;;;;;;7.40;6.70;;;21.80;36.40;;;;;;10261206;28;20699;-75
2023/09/27 19:49:26;;;;;;;7.17;6.47;;;21.50;36.80;;;;;;10261754;28;20228;-75
2023/09/27 19:54:29;;;;;;;7.53;6.90;;;21.20;36.90;;;;;;10259656;28;20236;-75
2023/09/27 19:59:33;;;;;;;8.40;7.70;;;21.00;37.40;;;;;;10265252;28;20231;-72
2023/09/27 20:04:37;;;;;;;8.90;7.40;;;20.80;37.20;;;;;;10260439;28;20235;-74
2023/09/27 20:09:40;;;;;;;8.97;8.20;;;20.60;37.00;;;;;;10255727;28;20251;-75
2023/09/27 20:14:45;;;;;;;8.63;7.73;;;20.40;37.50;;;;;;10259204;28;20718;-71
2023/09/27 20:19:49;;;;;;;8.53;7.57;;;20.20;38.20;;;;;;10273300;28;20326;-72
2023/09/27 20:24:53;;;;;;;7.83;7.00;;;20.00;38.10;;;;;;10266975;28;20239;-72
2023/09/27 20:30:01;;;;;;;8.23;7.53;;;19.90;38.40;;;;;;10269067;28;20306;-72
2023/09/27 20:35:05;;;;;;;7.73;6.93;;;19.80;38.50;;;;;;10266820;28;20739;-72
2023/09/27 20:40:10;;;;;;;7.80;7.20;;;19.80;38.20;;;;;;10270888;28;20235;-72
2023/09/27 20:45:15;;;;;;;5.87;5.43;;;19.80;38.20;;;;;;10260427;28;20699;-72
2023/09/27 20:50:18;;;;;;;6.90;6.30;;;19.70;38.50;;;;;;10266428;28;20227;-72
2023/09/27 20:55:21;;;;;;;6.23;5.73;;;19.70;38.30;;;;;;10266322;28;21923;-76
2023/09/27 21:00:26;;;;;;;7.13;6.53;;;19.70;38.40;;;;;;10267807;28;20928;-75
2023/09/27 21:05:32;;;;;;;7.77;7.07;;;19.70;38.60;;;;;;10264218;28;20241;-75
2023/09/27 21:10:35;;;;;;;6.63;6.13;;;19.70;37.90;;;;;;10258753;28;20313;-75
2023/09/27 21:15:40;;;;;;;7.90;7.20;;;19.60;37.90;;;;;;10263665;28;20270;-75
2023/09/27 21:20:43;;;;;;;6.70;6.10;;;19.50;38.30;;;;;;10264857;28;20231;-72
2023/09/27 21:25:46;;;;;;;7.30;6.80;;;19.40;38.10;;;;;;10265719;28;20240;-72
2023/09/27 21:30:51;;;;;;;7.87;7.17;;;19.50;38.40;;;;;;10269513;28;20226;-72
2023/09/27 21:35:54;;;;;;;6.40;5.90;;;19.40;38.40;;;;;;10260544;28;20247;-71
2023/09/27 21:40:58;;;;;;;6.40;5.90;;;19.20;38.40;;;;;;10262838;28;20251;-75
2023/09/27 21:46:03;;;;;;;6.50;6.00;;;19.10;38.60;;;;;;10263287;28;20235;-73
2023/09/27 21:51:07;;;;;;;6.13;5.63;;;19.00;39.10;;;;;;10267143;28;20230;-75
2023/09/27 21:56:11;;;;;;;6.33;5.80;;;19.00;38.80;;;;;;10271067;28;20227;-75
2023/09/27 22:01:15;;;;;;;7.17;6.60;;;19.00;38.80;;;;;;10262432;28;20216;-75
2023/09/27 22:06:19;;;;;;;6.60;6.10;;;19.00;39.10;;;;;;10263227;28;20234;-75
2023/09/27 22:11:22;;;;;;;6.87;6.27;;;19.00;39.00;;;;;;10259794;28;20235;-75
2023/09/27 22:16:26;;;;;;;6.00;5.43;;;19.10;38.90;;;;;;10269683;28;20242;-75
2023/09/27 22:21:31;;;;;;;5.77;5.37;;;19.10;39.00;;;;;;10268244;28;20249;-75
2023/09/27 22:26:34;;;;;;;5.43;4.93;;;19.10;39.00;;;;;;10263886;28;20228;-75
2023/09/27 22:31:39;;;;;;;7.10;6.50;;;19.10;38.80;;;;;;10264853;28;20235;-72
2023/09/27 22:36:46;;;;;;;6.63;6.13;;;19.20;39.10;;;;;;10266654;28;20243;-75
2023/09/27 22:41:51;;;;;;;7.40;6.77;;;19.10;38.60;;;;;;10264437;28;20246;-75
2023/09/27 22:46:59;;;;;;;8.10;7.40;;;19.10;38.40;;;;;;10259302;28;20249;-75
2023/09/27 22:52:08;;;;;;;7.03;6.43;;;18.90;38.30;;;;;;10261847;28;20251;-74
2023/09/27 22:57:11;;;;;;;6.60;6.03;;;18.70;38.40;;;;;;10254090;28;20919;-74
2023/09/27 23:02:16;;;;;;;7.20;6.60;;;18.60;38.70;;;;;;10263424;28;20323;-72
2023/09/27 23:07:20;;;;;;;6.87;6.27;;;18.60;39.00;;;;;;10264195;28;20219;-72
2023/09/27 23:12:24;;;;;;;6.67;6.17;;;18.50;38.60;;;;;;10263426;28;20279;-75
2023/09/27 23:17:29;;;;;;;6.97;6.30;;;18.50;38.70;;;;;;10256241;28;20294;-75
2023/09/27 23:22:56;;;;;;;7.00;6.50;;;18.30;39.00;;;;;;10263206;28;20806;-75
2023/09/27 23:28:02;;;;;;;7.23;6.63;;;18.20;38.90;;;;;;10260564;28;20286;-72
2023/09/27 23:33:06;;;;;;;8.10;7.40;;;18.00;38.90;;;;;;10262499;28;20229;-72
2023/09/27 23:38:53;;;;;;;8.37;6.83;;;17.90;39.40;;;;;;10268214;28;20227;-72
2023/09/27 23:43:39;;;;;;;7.20;6.50;;;17.70;39.40;;;;;;10273131;28;20228;-71
2023/09/27 23:48:45;;;;;;;5.60;5.10;;;17.60;39.60;;;;;;10270018;28;20270;-71
2023/09/27 23:53:48;;;;;;;7.00;6.40;;;17.50;40.10;;;;;;10256529;28;20236;-71
2023/09/27 23:58:52;;;;;;;5.40;5.00;;;17.50;39.80;;;;;;10263937;28;20270;-72
